Melbourne International Airport Melbourne US
ICAO: KMLB
IATA: MLB
Category: Medium
Scheduled Services: Yes

Elevation: 33 ft
TransAlt. 18000 ft.

Airport Communications:
ORLANDO APP/DEP:132.65
ATIS:132.55
CLNC DEL:121.9
CTAF:118.2
GND:121.9
GRUMMAN OPS:123.2
ST PETERSBURG RDO:122.6
TWR:118.2
UNICOM:122.95

KMLB Zoom In..

If you have problems with the map follow the link
https://www.worldairports.se/pages/airport.php?
ICAO=KMLB

Runways:

(A) RW 05 length 3001 ft width 75 ft
---- / hdg 49

(B) RW 09L length 6000 ft width 150 ft
---- / hdg 94

(C) RW 09R length 10181 ft width 150 ft
ILS 108.30 / hdg 94

(D) RW 23 length 3001 ft width 75 ft
---- / hdg 229

(E) RW 27L length 10181 ft width 150 ft
---- / hdg 274

(F) RW 27R length 6000 ft width 150 ft
---- / hdg 274

Location; KMLB
Day. 23 / Time. 17.53 Zulu
* Altimeter: 30.05
* Temperature: 29° c. 84.2°f.
* Wind from: VRB° Speed 04 kn.
Dewpoint: 17° c.
Visibility: 10 Statute Miles.
Clouds: Scattered 3500 ft.

KMLB 231753Z VRB04KT 10SM SCT035 29/17 A3005 RMK AO2 SLP176 T02940172 10300 20206 58018


Wind From VRB°
Speed 04 kn.

 
 
jpsmedia.com for Web Design worldairports.se 2018   terms of use